Moko, Arkansas
Current Conditions -  °F | °C
As of 3:16 PM on Friday 19 Dec 2014 (Local Time) from KUNO Reporting Station
Overcast Overcast  
Wind Chill: -1°   Ceiling: 600
Heat Index:   Visibility: 10mi
Dew Point:   Wind: 6mph
Humidity: 89%   Direction: 80°E
Pressure: 30.2"   Gusts: NA
Location:  36.47°N, 91.84°W
Report Text: KUNO 192116Z AUTO 08005KT 10SM OVC006 02/00 A3020 RMK AO2 CIG 006V010 T00170000
Loading
Personal Weather Stations






























Interactive Weather Map New forecast layout! Learn more

10-Day Weather Forecast

Advertisements
Track Severe Weather on mobile